createdAt,value
2023-05-17T00:02:54.740Z,99.90
2023-05-17T00:05:56.921Z,99.90
2023-05-17T00:08:59.654Z,99.90
2023-05-17T00:12:01.899Z,99.90
2023-05-17T00:15:05.184Z,99.90
2023-05-17T00:18:07.204Z,99.90
2023-05-17T00:21:09.306Z,99.90
2023-05-17T00:24:11.148Z,99.90
2023-05-17T00:27:13.052Z,99.90
2023-05-17T00:30:15.227Z,99.90
2023-05-17T00:33:17.618Z,99.90
2023-05-17T00:36:19.518Z,99.90
2023-05-17T00:39:22.969Z,99.90
2023-05-17T00:42:24.702Z,99.90
2023-05-17T00:45:27.011Z,99.90
2023-05-17T00:48:29.801Z,99.90
2023-05-17T00:51:33.620Z,99.90
2023-05-17T00:54:35.540Z,99.90
2023-05-17T00:57:38.936Z,99.90
2023-05-17T01:00:41.180Z,99.90
2023-05-17T01:03:44.094Z,99.90
2023-05-17T01:06:46.237Z,99.90
2023-05-17T01:09:48.436Z,99.90
2023-05-17T01:13:11.043Z,99.90
2023-05-17T01:16:22.989Z,99.90
2023-05-17T01:19:41.786Z,99.90
2023-05-17T01:22:46.129Z,99.90
2023-05-17T01:26:09.430Z,99.90
2023-05-17T01:29:14.274Z,99.90
2023-05-17T01:32:16.337Z,99.90
2023-05-17T01:35:18.452Z,99.90
2023-05-17T01:38:20.499Z,99.90
2023-05-17T01:41:41.604Z,99.90
2023-05-17T01:45:28.426Z,99.90
2023-05-17T01:48:40.929Z,99.90
2023-05-17T01:51:56.562Z,99.90
2023-05-17T01:55:19.270Z,99.90
2023-05-17T01:58:25.231Z,99.90
2023-05-17T02:01:29.760Z,99.90
2023-05-17T02:04:32.090Z,99.90
2023-05-17T02:07:34.183Z,99.90
2023-05-17T02:10:37.463Z,99.90
2023-05-17T02:13:40.348Z,99.90
2023-05-17T02:16:42.540Z,99.90
2023-05-17T02:19:47.662Z,99.90
2023-05-17T02:22:49.800Z,99.90
2023-05-17T02:25:51.738Z,99.90
2023-05-17T02:28:53.859Z,99.90
2023-05-17T02:31:56.553Z,99.90
2023-05-17T02:34:58.412Z,99.90
2023-05-17T02:38:00.533Z,99.90
2023-05-17T02:41:03.809Z,99.90
2023-05-17T02:44:10.432Z,99.90
2023-05-17T02:47:12.431Z,99.90
2023-05-17T02:50:14.435Z,99.90
2023-05-17T02:53:16.416Z,99.90
2023-05-17T02:56:19.253Z,99.90
2023-05-17T02:59:21.293Z,99.90
2023-05-17T03:02:23.217Z,99.90
2023-05-17T03:05:25.185Z,99.90
2023-05-17T03:08:27.040Z,99.90
2023-05-17T03:11:29.125Z,99.90
2023-05-17T03:14:31.366Z,99.90
2023-05-17T03:17:33.351Z,99.90
2023-05-17T03:20:36.004Z,99.90
2023-05-17T03:23:37.993Z,99.90
2023-05-17T03:26:39.865Z,99.90
2023-05-17T03:29:41.788Z,99.90
2023-05-17T03:32:44.540Z,99.90
2023-05-17T03:35:49.379Z,99.90
2023-05-17T03:38:51.200Z,99.90
2023-05-17T03:41:53.989Z,99.90
2023-05-17T03:44:55.818Z,99.90
2023-05-17T03:47:57.756Z,99.90
2023-05-17T03:51:01.373Z,99.90
2023-05-17T03:54:03.437Z,99.90
2023-05-17T03:57:05.501Z,99.90
2023-05-17T04:00:10.673Z,99.90
2023-05-17T04:03:13.088Z,99.90
2023-05-17T04:06:15.210Z,99.90
2023-05-17T04:09:17.034Z,99.90
2023-05-17T04:12:19.018Z,99.90
2023-05-17T04:15:22.018Z,99.90
2023-05-17T04:18:24.095Z,99.90
2023-05-17T04:21:26.599Z,99.90
2023-05-17T04:24:28.387Z,99.90
2023-05-17T04:27:36.448Z,99.90
2023-05-17T04:30:42.869Z,99.90
2023-05-17T04:33:44.696Z,99.90
2023-05-17T04:36:46.580Z,99.90
2023-05-17T04:39:49.235Z,99.90
2023-05-17T04:42:51.320Z,99.90
2023-05-17T04:46:02.556Z,99.90
2023-05-17T04:49:04.592Z,99.90
2023-05-17T04:52:11.354Z,99.90
2023-05-17T04:55:13.876Z,99.90
2023-05-17T04:58:22.816Z,99.90
2023-05-17T05:01:24.581Z,99.90
2023-05-17T05:04:26.675Z,99.90
2023-05-17T05:07:28.841Z,99.90
2023-05-17T05:10:31.077Z,99.90
2023-05-17T05:13:33.462Z,99.90
2023-05-17T05:16:42.630Z,99.90
2023-05-17T05:19:44.541Z,99.90
2023-05-17T05:22:47.801Z,99.90
2023-05-17T05:25:49.682Z,99.90
2023-05-17T05:28:52.440Z,99.90
2023-05-17T05:31:55.148Z,99.90
2023-05-17T05:34:58.826Z,99.90
2023-05-17T05:38:01.016Z,99.90
2023-05-17T05:41:03.185Z,99.90
2023-05-17T05:44:05.208Z,99.90
2023-05-17T05:47:07.075Z,99.90
2023-05-17T05:50:09.723Z,99.90
2023-05-17T05:53:19.032Z,99.90
2023-05-17T05:56:21.662Z,99.90
2023-05-17T05:59:25.123Z,99.90
2023-05-17T06:02:27.112Z,99.90
2023-05-17T06:05:29.098Z,99.90
2023-05-17T06:08:31.183Z,99.90
2023-05-17T06:11:33.958Z,99.90
2023-05-17T06:14:37.733Z,99.90
2023-05-17T06:17:39.633Z,99.90
2023-05-17T06:20:41.517Z,99.90
2023-05-17T06:23:44.260Z,99.90
2023-05-17T06:26:47.250Z,99.90
2023-05-17T06:29:50.639Z,99.90
2023-05-17T06:32:52.498Z,99.90
2023-05-17T06:39:02.373Z,99.90
2023-05-17T06:42:04.976Z,99.90
2023-05-17T06:45:07.680Z,99.90
2023-05-17T06:48:09.838Z,99.90
2023-05-17T06:51:11.723Z,99.90
2023-05-17T06:54:14.357Z,99.90
2023-05-17T06:57:16.126Z,99.90
2023-05-17T07:00:19.197Z,99.90
2023-05-17T07:03:21.163Z,99.90
2023-05-17T07:06:24.343Z,99.90
2023-05-17T07:09:26.445Z,99.90
2023-05-17T07:12:28.496Z,99.90
2023-05-17T07:15:30.567Z,99.90
2023-05-17T07:18:33.494Z,99.90
2023-05-17T07:21:35.853Z,99.90
2023-05-17T07:24:38.747Z,99.90
2023-05-17T07:27:40.727Z,99.90
2023-05-17T07:30:42.732Z,99.90
2023-05-17T07:33:44.699Z,99.90
2023-05-17T07:36:47.331Z,99.90
2023-05-17T07:39:49.402Z,99.90
2023-05-17T07:42:53.002Z,99.90
2023-05-17T07:45:54.978Z,99.90
2023-05-17T07:48:58.754Z,99.90
2023-05-17T07:52:02.729Z,99.90
2023-05-17T07:55:05.923Z,99.90
2023-05-17T07:58:11.828Z,99.90
2023-05-17T08:01:13.778Z,99.90
2023-05-17T08:04:15.948Z,99.90
2023-05-17T08:07:19.549Z,99.90
2023-05-17T08:10:21.786Z,99.90
2023-05-17T08:13:24.434Z,99.90
2023-05-17T08:16:26.926Z,99.90
2023-05-17T08:19:29.860Z,99.90
2023-05-17T08:22:31.747Z,99.90
2023-05-17T08:25:34.687Z,99.90
2023-05-17T08:28:36.458Z,99.90
2023-05-17T08:31:39.122Z,99.90
2023-05-17T08:34:41.142Z,99.90
2023-05-17T08:37:43.952Z,99.90
2023-05-17T08:40:54.423Z,99.90
2023-05-17T08:43:57.134Z,99.90
2023-05-17T08:47:00.656Z,99.90
2023-05-17T08:50:05.344Z,99.90
2023-05-17T08:53:08.127Z,99.90
2023-05-17T08:56:13.804Z,99.90
2023-05-17T08:59:15.982Z,99.90
2023-05-17T09:02:18.667Z,99.90
2023-05-17T09:05:22.698Z,99.90
2023-05-17T09:08:35.130Z,99.90
2023-05-17T09:11:37.174Z,99.90
2023-05-17T09:14:41.369Z,99.90
2023-05-17T09:17:44.017Z,99.90
2023-05-17T09:20:52.458Z,99.90
2023-05-17T09:24:05.374Z,99.90
2023-05-17T09:27:11.647Z,99.90
2023-05-17T09:30:13.674Z,99.90
2023-05-17T09:33:17.781Z,99.90
2023-05-17T09:36:22.569Z,99.90
2023-05-17T09:39:26.532Z,99.90
2023-05-17T09:42:28.428Z,99.90
2023-05-17T09:45:33.495Z,99.90
2023-05-17T09:48:38.984Z,99.90
2023-05-17T09:51:43.701Z,99.90
2023-05-17T09:54:55.210Z,99.90
2023-05-17T09:58:04.634Z,99.90
2023-05-17T10:01:07.433Z,99.90
2023-05-17T10:04:20.118Z,99.90
2023-05-17T10:07:22.889Z,99.90
2023-05-17T10:10:26.200Z,99.90
2023-05-17T10:13:33.549Z,99.90
2023-05-17T10:16:40.736Z,99.90
2023-05-17T10:19:43.238Z,99.90
2023-05-17T10:22:46.465Z,99.90
2023-05-17T10:25:49.183Z,99.90
2023-05-17T10:28:53.535Z,99.50
2023-05-17T10:31:56.456Z,98.40
2023-05-17T10:35:10.149Z,99.90
2023-05-17T10:38:13.755Z,99.90
2023-05-17T10:41:17.417Z,99.90
2023-05-17T10:44:19.633Z,99.90
2023-05-17T10:47:23.331Z,99.90
2023-05-17T10:50:27.028Z,99.90
2023-05-17T10:53:30.036Z,99.90
2023-05-17T10:56:32.938Z,99.90
2023-05-17T10:59:37.964Z,99.50
2023-05-17T11:02:44.243Z,99.40
2023-05-17T11:06:13.158Z,99.90
2023-05-17T11:09:26.167Z,99.90
2023-05-17T11:12:54.546Z,99.90
2023-05-17T11:16:07.830Z,98.80
2023-05-17T11:19:11.788Z,99.90
2023-05-17T11:22:16.408Z,98.70
2023-05-17T11:25:19.384Z,98.40
2023-05-17T11:28:22.487Z,98.70
2023-05-17T11:31:32.214Z,98.10
2023-05-17T11:34:34.343Z,98.40
2023-05-17T11:37:37.073Z,97.60
2023-05-17T11:40:39.992Z,97.50
2023-05-17T11:43:47.325Z,97.20
2023-05-17T11:46:50.519Z,97.20
2023-05-17T11:49:55.677Z,97.80
2023-05-17T11:53:00.319Z,97.00
2023-05-17T11:56:07.071Z,97.20
2023-05-17T11:59:09.637Z,96.80
2023-05-17T12:02:32.140Z,96.50
2023-05-17T12:05:35.362Z,97.40
2023-05-17T12:08:40.116Z,97.20
2023-05-17T12:11:42.490Z,97.00
2023-05-17T12:14:49.775Z,96.60
2023-05-17T12:17:53.663Z,97.20
2023-05-17T12:21:00.316Z,96.80
2023-05-17T12:24:02.304Z,97.50
2023-05-17T12:27:05.085Z,96.50
2023-05-17T12:30:16.480Z,96.70
2023-05-17T12:33:18.571Z,96.90
2023-05-17T12:36:22.389Z,96.80
2023-05-17T12:39:28.145Z,97.50
2023-05-17T12:42:30.041Z,96.30
2023-05-17T12:45:34.611Z,97.00
2023-05-17T12:48:37.695Z,96.20
2023-05-17T12:51:49.682Z,95.00
2023-05-17T12:54:51.561Z,95.20
2023-05-17T12:57:55.409Z,96.10
2023-05-17T13:01:02.410Z,96.60
2023-05-17T13:04:05.063Z,95.80
2023-05-17T13:07:07.574Z,96.00
2023-05-17T13:10:27.900Z,95.80
2023-05-17T13:13:33.256Z,97.50
2023-05-17T13:16:39.333Z,96.60
2023-05-17T13:19:41.665Z,95.80
2023-05-17T13:22:48.170Z,95.60
2023-05-17T13:25:50.466Z,95.70
2023-05-17T13:28:53.243Z,95.80
2023-05-17T13:31:55.025Z,96.10
2023-05-17T13:35:01.895Z,95.30
2023-05-17T13:38:03.737Z,94.50
2023-05-17T13:41:06.754Z,95.40
2023-05-17T13:44:09.041Z,95.10
2023-05-17T13:47:11.204Z,94.80
2023-05-17T13:50:15.954Z,96.40
2023-05-17T13:53:18.981Z,96.00
2023-05-17T13:56:22.411Z,94.60
2023-05-17T13:59:24.183Z,94.30
2023-05-17T14:02:26.231Z,94.10
2023-05-17T14:05:28.279Z,94.50
2023-05-17T14:08:30.701Z,95.40
2023-05-17T14:11:32.590Z,96.10
2023-05-17T14:14:34.570Z,95.80
2023-05-17T14:20:40.643Z,94.90
2023-05-17T14:23:44.144Z,93.90
2023-05-17T14:26:46.054Z,94.10
2023-05-17T14:29:48.125Z,94.80
2023-05-17T14:32:50.118Z,93.00
2023-05-17T14:35:52.037Z,93.00
2023-05-17T14:38:54.082Z,93.10
2023-05-17T14:41:56.921Z,94.50
2023-05-17T14:44:58.813Z,94.80
2023-05-17T14:48:02.251Z,94.90
2023-05-17T14:51:04.184Z,93.50
2023-05-17T14:54:06.140Z,92.80
2023-05-17T14:57:11.982Z,92.40
2023-05-17T15:00:16.571Z,93.30
2023-05-17T15:03:21.714Z,93.70
2023-05-17T15:06:27.618Z,93.50
2023-05-17T15:09:31.039Z,94.00
2023-05-17T15:12:33.801Z,93.70
2023-05-17T15:15:36.716Z,93.90
2023-05-17T15:18:39.521Z,93.60
2023-05-17T15:21:42.146Z,94.50
2023-05-17T15:24:49.718Z,94.50
2023-05-17T15:27:51.554Z,93.40
2023-05-17T15:31:06.220Z,92.40
2023-05-17T15:34:08.927Z,91.70
2023-05-17T15:37:14.268Z,91.80
2023-05-17T15:40:16.882Z,91.80
2023-05-17T15:43:20.450Z,92.50
2023-05-17T15:46:22.407Z,92.50
2023-05-17T15:49:25.608Z,92.30
2023-05-17T15:52:27.500Z,91.60
2023-05-17T15:55:29.501Z,91.90
2023-05-17T15:58:33.140Z,92.50
2023-05-17T16:01:34.896Z,92.80
2023-05-17T16:04:36.741Z,92.20
2023-05-17T16:07:40.663Z,92.90
2023-05-17T16:10:42.570Z,93.50
2023-05-17T16:13:44.671Z,93.40
2023-05-17T16:16:46.659Z,93.90
2023-05-17T16:19:48.614Z,93.00
2023-05-17T16:22:51.841Z,93.10
2023-05-17T16:25:54.808Z,93.30
2023-05-17T16:28:57.092Z,93.30
2023-05-17T16:32:03.602Z,93.60
2023-05-17T16:35:06.203Z,94.10
2023-05-17T16:38:09.057Z,92.70
2023-05-17T16:41:11.100Z,92.40
2023-05-17T16:44:13.090Z,92.30
2023-05-17T16:47:15.448Z,91.90
2023-05-17T16:50:18.058Z,91.50
2023-05-17T16:53:20.111Z,91.40
2023-05-17T16:56:23.044Z,90.10
2023-05-17T16:59:24.905Z,89.60
2023-05-17T17:02:33.807Z,90.70
2023-05-17T17:05:46.259Z,90.80
2023-05-17T17:08:48.255Z,91.20
2023-05-17T17:11:50.089Z,91.00
2023-05-17T17:14:52.416Z,91.70
2023-05-17T17:17:54.515Z,91.60
2023-05-17T17:20:57.335Z,91.30
2023-05-17T17:23:59.473Z,91.00
2023-05-17T17:27:06.100Z,91.40
2023-05-17T17:30:08.407Z,91.20
2023-05-17T17:33:11.346Z,91.50
2023-05-17T17:36:13.346Z,92.00
2023-05-17T17:39:18.740Z,92.40
2023-05-17T17:42:20.983Z,92.70
2023-05-17T17:45:25.430Z,92.70
2023-05-17T17:48:27.376Z,92.90
2023-05-17T17:51:29.360Z,92.70
2023-05-17T17:54:31.325Z,92.70
2023-05-17T17:57:40.087Z,93.30
2023-05-17T18:00:42.121Z,93.90
2023-05-17T18:03:43.946Z,94.10
2023-05-17T18:06:50.100Z,93.80
2023-05-17T18:09:52.473Z,93.90
2023-05-17T18:12:54.285Z,94.50
2023-05-17T18:15:58.158Z,94.70
2023-05-17T18:19:00.784Z,94.80
2023-05-17T18:22:03.002Z,94.10
2023-05-17T18:25:05.493Z,94.70
2023-05-17T18:28:09.118Z,94.90
2023-05-17T18:31:11.499Z,94.60
2023-05-17T18:34:14.101Z,94.70
2023-05-17T18:37:16.194Z,94.90
2023-05-17T18:40:18.314Z,94.80
2023-05-17T18:43:20.600Z,95.40
2023-05-17T18:46:22.468Z,95.90
2023-05-17T18:49:26.467Z,96.00
2023-05-17T18:52:29.676Z,96.40
2023-05-17T18:55:31.506Z,96.80
2023-05-17T18:58:33.621Z,97.20
2023-05-17T19:01:36.813Z,97.00
2023-05-17T19:04:43.293Z,97.30
2023-05-17T19:07:46.729Z,97.70
2023-05-17T19:14:18.176Z,98.30
2023-05-17T19:17:20.136Z,98.20
2023-05-17T19:20:22.050Z,98.30
2023-05-17T19:23:24.018Z,98.70
2023-05-17T19:26:26.386Z,98.80
2023-05-17T19:29:29.599Z,99.00
2023-05-17T19:32:33.158Z,99.00
2023-05-17T19:35:40.242Z,99.30
2023-05-17T19:38:42.221Z,99.60
2023-05-17T19:41:45.055Z,99.90
2023-05-17T19:44:47.017Z,99.90
2023-05-17T19:47:49.601Z,99.90
2023-05-17T19:50:53.179Z,99.90
2023-05-17T19:53:56.101Z,99.90
2023-05-17T19:56:59.621Z,99.90
2023-05-17T20:00:02.678Z,99.90
2023-05-17T20:03:05.376Z,99.90
2023-05-17T20:06:11.186Z,99.90
2023-05-17T20:09:13.008Z,99.90
2023-05-17T20:12:19.514Z,99.90
2023-05-17T20:15:23.147Z,99.90
2023-05-17T20:18:27.669Z,99.90
2023-05-17T20:21:30.034Z,99.90
2023-05-17T20:24:34.851Z,99.90
2023-05-17T20:27:36.886Z,99.90
2023-05-17T20:30:48.234Z,99.90
2023-05-17T20:33:50.330Z,99.90
2023-05-17T20:36:53.116Z,99.90
2023-05-17T20:40:00.016Z,99.90
2023-05-17T20:43:03.530Z,99.90
2023-05-17T20:46:07.385Z,99.90
2023-05-17T20:49:09.837Z,99.90
2023-05-17T20:52:13.093Z,99.90
2023-05-17T20:55:15.119Z,99.90
2023-05-17T20:58:16.975Z,99.90
2023-05-17T21:01:18.955Z,99.90
2023-05-17T21:04:21.191Z,99.90
2023-05-17T21:07:26.575Z,99.90
2023-05-17T21:10:29.491Z,99.90
2023-05-17T21:13:33.782Z,99.90
2023-05-17T21:16:35.822Z,99.90
2023-05-17T21:19:38.750Z,99.90
2023-05-17T21:22:40.719Z,99.90
2023-05-17T21:25:42.606Z,99.90
2023-05-17T21:28:44.719Z,99.90
2023-05-17T21:31:47.539Z,99.90
2023-05-17T21:34:50.020Z,99.90
2023-05-17T21:37:52.935Z,99.90
2023-05-17T21:40:55.567Z,99.90
2023-05-17T21:43:59.316Z,99.90
2023-05-17T21:47:01.214Z,99.90
2023-05-17T21:50:05.322Z,99.90
2023-05-17T21:53:07.140Z,99.90
2023-05-17T21:56:12.132Z,99.90
2023-05-17T21:59:13.966Z,99.90
2023-05-17T22:02:17.989Z,99.90
2023-05-17T22:05:20.509Z,99.90
2023-05-17T22:08:28.498Z,99.90
2023-05-17T22:11:30.777Z,99.90
2023-05-17T22:14:34.815Z,99.90
2023-05-17T22:17:47.847Z,99.90
2023-05-17T22:20:53.857Z,99.90
2023-05-17T22:23:56.685Z,99.90
2023-05-17T22:26:58.540Z,99.90
2023-05-17T22:30:00.938Z,99.90
2023-05-17T22:33:07.859Z,99.90
2023-05-17T22:36:14.136Z,99.90
2023-05-17T22:39:16.334Z,99.90
2023-05-17T22:42:18.196Z,99.90
2023-05-17T22:45:20.201Z,99.90
2023-05-17T22:48:22.321Z,99.90
2023-05-17T22:51:26.401Z,99.90
2023-05-17T22:54:28.399Z,99.90
2023-05-17T22:57:30.258Z,99.90
2023-05-17T23:00:32.396Z,99.90
2023-05-17T23:03:37.680Z,99.90
2023-05-17T23:06:39.743Z,99.90
2023-05-17T23:09:42.578Z,99.90
2023-05-17T23:12:44.410Z,99.90
2023-05-17T23:15:46.992Z,99.90
2023-05-17T23:18:49.221Z,99.90
2023-05-17T23:21:51.862Z,99.90
2023-05-17T23:24:54.102Z,99.90
2023-05-17T23:27:58.247Z,99.90
2023-05-17T23:31:02.135Z,99.90
2023-05-17T23:34:06.932Z,99.90
2023-05-17T23:37:08.939Z,99.90
2023-05-17T23:40:12.356Z,99.90
2023-05-17T23:43:15.195Z,99.90
2023-05-17T23:46:19.661Z,99.90
2023-05-17T23:49:23.230Z,99.90
2023-05-17T23:52:25.301Z,99.90
2023-05-17T23:55:27.257Z,99.90
2023-05-17T23:58:30.036Z,99.90
